Time;durP1;ratioP1;P1;durP2;ratioP2;P2;SDS_P1;SDS_P2;PMS_P1;PMS_P2;Temp;Humidity;BMP_temperature;BMP_pressure;BME280_temperature;BME280_humidity;BME280_pressure;Samples;Min_cycle;Max_cycle;Signal;HPM_P1;HPM_P2
2021/03/15 00:00:24;;;;;;;31.45;16.33;;;;;;;;;;4991184;28;20019;-63
2021/03/15 00:02:51;;;;;;;42.67;23.13;;;;;;;;;;4994486;28;20042;-63
2021/03/15 00:05:17;;;;;;;30.83;17.33;;;;;;;;;;4994211;28;20382;-63
2021/03/15 00:07:42;;;;;;;30.15;16.17;;;;;;;;;;4994265;28;20026;-63
2021/03/15 00:10:08;;;;;;;27.10;16.33;;;;;;;;;;4994133;28;20069;-64
2021/03/15 00:12:34;;;;;;;28.90;15.93;;;;;;;;;;4991761;28;20135;-64
2021/03/15 00:15:00;;;;;;;26.35;15.68;;;;;;;;;;4994126;28;20492;-64
2021/03/15 00:17:26;;;;;;;29.05;15.82;;;;;;;;;;4992561;28;20142;-63
2021/03/15 00:19:52;;;;;;;26.70;16.67;;;;;;;;;;4994292;28;20026;-63
2021/03/15 00:22:17;;;;;;;30.38;15.85;;;;;;;;;;4994095;28;20018;-63
2021/03/15 00:24:43;;;;;;;25.20;16.05;;;;;;;;;;4993521;28;20022;-59
2021/03/15 00:27:08;;;;;;;162.23;57.45;;;;;;;;;;4993920;28;20027;-59
2021/03/15 00:29:34;;;;;;;116.15;46.55;;;;;;;;;;4994063;28;20041;-59
2021/03/15 00:31:59;;;;;;;84.47;36.92;;;;;;;;;;4994005;28;20101;-59
2021/03/15 00:34:25;;;;;;;37.13;20.75;;;;;;;;;;4993996;28;20037;-59
2021/03/15 00:36:51;;;;;;;29.20;16.40;;;;;;;;;;4993686;28;20492;-58
2021/03/15 00:39:16;;;;;;;64.07;28.75;;;;;;;;;;4993617;28;20030;-58
2021/03/15 00:41:42;;;;;;;30.27;16.80;;;;;;;;;;4993541;28;20019;-58
2021/03/15 00:44:08;;;;;;;29.27;16.33;;;;;;;;;;4993642;28;20034;-58
2021/03/15 00:46:35;;;;;;;77.93;34.97;;;;;;;;;;4993778;28;20046;-58
2021/03/15 00:49:00;;;;;;;59.83;26.40;;;;;;;;;;4992289;28;20492;-58
2021/03/15 00:51:26;;;;;;;71.85;32.33;;;;;;;;;;4993536;28;20053;-59
2021/03/15 00:53:52;;;;;;;69.32;29.35;;;;;;;;;;4992073;28;20026;-58
2021/03/15 00:56:18;;;;;;;82.75;34.22;;;;;;;;;;4992065;28;20033;-58
2021/03/15 00:58:44;;;;;;;76.00;33.92;;;;;;;;;;4992273;28;20509;-59
2021/03/15 01:01:13;;;;;;;33.25;19.10;;;;;;;;;;4992014;28;20019;-58
2021/03/15 01:03:45;;;;;;;30.30;16.38;;;;;;;;;;4976651;28;20029;-58
2021/03/15 01:06:14;;;;;;;28.08;16.23;;;;;;;;;;4992410;28;20042;-59
2021/03/15 01:08:58;;;;;;;28.45;15.57;;;;;;;;;;4991841;28;20420;-59
2021/03/15 01:11:44;;;;;;;31.42;16.88;;;;;;;;;;4992073;28;20072;-59
2021/03/15 01:14:12;;;;;;;31.10;16.75;;;;;;;;;;4991367;28;20034;-62
2021/03/15 01:16:51;;;;;;;30.65;17.35;;;;;;;;;;4991918;28;20034;-63
2021/03/15 01:19:18;;;;;;;26.95;16.08;;;;;;;;;;4991762;28;20117;-64
2021/03/15 01:21:43;;;;;;;29.27;15.98;;;;;;;;;;4993477;28;20113;-63
2021/03/15 01:24:09;;;;;;;27.85;16.23;;;;;;;;;;4993143;28;20031;-63
2021/03/15 01:26:34;;;;;;;33.38;16.90;;;;;;;;;;4993140;28;20029;-63
2021/03/15 01:29:00;;;;;;;30.55;17.20;;;;;;;;;;4992958;28;20030;-63
2021/03/15 01:31:26;;;;;;;31.75;17.27;;;;;;;;;;4993033;28;20028;-63
2021/03/15 01:33:51;;;;;;;29.30;17.75;;;;;;;;;;4992754;28;20030;-64
2021/03/15 01:36:17;;;;;;;31.45;17.63;;;;;;;;;;4992708;28;20076;-64
2021/03/15 01:38:42;;;;;;;28.92;16.80;;;;;;;;;;4992566;28;20057;-64
2021/03/15 01:41:08;;;;;;;29.95;17.15;;;;;;;;;;4992839;28;20014;-64
2021/03/15 01:43:34;;;;;;;29.65;17.40;;;;;;;;;;4991354;28;20055;-63
2021/03/15 01:45:59;;;;;;;32.38;17.52;;;;;;;;;;4992692;28;20424;-63
2021/03/15 01:48:25;;;;;;;39.13;22.83;;;;;;;;;;4992564;28;20436;-63
2021/03/15 01:50:50;;;;;;;45.00;25.58;;;;;;;;;;4992627;28;20015;-63
2021/03/15 01:53:17;;;;;;;46.65;26.90;;;;;;;;;;4992507;28;20062;-63
2021/03/15 01:55:44;;;;;;;42.17;24.65;;;;;;;;;;4992296;28;20079;-64
2021/03/15 01:58:10;;;;;;;39.03;21.77;;;;;;;;;;4992542;28;20034;-58
2021/03/15 02:00:36;;;;;;;31.13;18.70;;;;;;;;;;4992733;28;20162;-58
2021/03/15 02:03:03;;;;;;;34.17;18.70;;;;;;;;;;4991208;28;20034;-58
2021/03/15 02:05:33;;;;;;;34.33;19.83;;;;;;;;;;4992286;28;20034;-58
2021/03/15 02:07:59;;;;;;;34.78;20.67;;;;;;;;;;4992266;28;20031;-64
2021/03/15 02:10:25;;;;;;;34.58;19.80;;;;;;;;;;4992401;28;20020;-64
2021/03/15 02:12:53;;;;;;;34.92;18.88;;;;;;;;;;4991942;28;20113;-64
2021/03/15 02:15:24;;;;;;;32.03;18.27;;;;;;;;;;4992459;28;20470;-64
2021/03/15 02:18:02;;;;;;;34.22;19.08;;;;;;;;;;4992500;28;20042;-64
2021/03/15 02:20:42;;;;;;;36.00;19.02;;;;;;;;;;4992348;28;20496;-64
2021/03/15 02:23:11;;;;;;;32.70;18.50;;;;;;;;;;4992266;28;20486;-64
2021/03/15 02:25:36;;;;;;;32.30;19.08;;;;;;;;;;4990800;28;20026;-64
2021/03/15 02:28:14;;;;;;;36.83;19.85;;;;;;;;;;4992065;28;20489;-64
2021/03/15 02:30:46;;;;;;;39.85;22.27;;;;;;;;;;4992076;28;20030;-65
2021/03/15 02:33:30;;;;;;;34.35;20.33;;;;;;;;;;4990683;28;20489;-65
2021/03/15 02:35:57;;;;;;;32.97;19.45;;;;;;;;;;4992059;28;20030;-64
2021/03/15 02:38:25;;;;;;;34.78;19.33;;;;;;;;;;4991741;28;20026;-65
2021/03/15 02:40:56;;;;;;;33.53;19.65;;;;;;;;;;4991827;28;20109;-64
2021/03/15 02:43:24;;;;;;;37.28;20.48;;;;;;;;;;4991834;28;20026;-65
2021/03/15 02:45:52;;;;;;;35.97;19.90;;;;;;;;;;4991787;28;20101;-65
2021/03/15 02:48:18;;;;;;;36.63;20.65;;;;;;;;;;4992037;28;20033;-65
2021/03/15 02:50:45;;;;;;;37.15;20.63;;;;;;;;;;4991789;28;20092;-65
2021/03/15 02:53:11;;;;;;;36.47;20.25;;;;;;;;;;4991900;28;20026;-64
2021/03/15 02:55:39;;;;;;;33.00;19.33;;;;;;;;;;4991613;28;20032;-65
2021/03/15 02:58:04;;;;;;;32.85;20.05;;;;;;;;;;4990504;28;20042;-64
2021/03/15 03:00:30;;;;;;;34.83;19.65;;;;;;;;;;4991775;28;20023;-60
2021/03/15 03:02:58;;;;;;;33.80;19.45;;;;;;;;;;4991577;28;20023;-60
2021/03/15 03:05:24;;;;;;;37.42;20.27;;;;;;;;;;4991450;28;20022;-59
2021/03/15 03:07:51;;;;;;;32.17;19.08;;;;;;;;;;4991474;28;20546;-58
2021/03/15 03:10:18;;;;;;;36.05;20.85;;;;;;;;;;4990992;28;20157;-60
2021/03/15 03:12:44;;;;;;;35.30;20.55;;;;;;;;;;4990799;28;20555;-59
2021/03/15 03:15:12;;;;;;;36.13;21.05;;;;;;;;;;4991518;28;20031;-60
2021/03/15 03:17:38;;;;;;;36.88;20.58;;;;;;;;;;4991360;28;20044;-59
2021/03/15 03:20:24;;;;;;;40.05;22.13;;;;;;;;;;4991447;28;20486;-58
2021/03/15 03:22:52;;;;;;;41.97;22.33;;;;;;;;;;4989982;28;20531;-58
2021/03/15 03:25:19;;;;;;;39.17;23.20;;;;;;;;;;4991425;28;20045;-58
2021/03/15 03:27:53;;;;;;;38.97;23.45;;;;;;;;;;4991495;28;20039;-58
2021/03/15 03:30:24;;;;;;;34.75;21.73;;;;;;;;;;4991106;28;20087;-58
2021/03/15 03:32:49;;;;;;;38.20;21.90;;;;;;;;;;4990906;28;20079;-58
2021/03/15 03:35:15;;;;;;;37.63;23.23;;;;;;;;;;4991223;28;20030;-58
2021/03/15 03:37:40;;;;;;;39.50;23.58;;;;;;;;;;4994614;28;20027;-58
2021/03/15 03:40:06;;;;;;;41.85;22.60;;;;;;;;;;4993479;28;20117;-58
2021/03/15 03:42:32;;;;;;;38.20;22.50;;;;;;;;;;4994668;28;20109;-58
2021/03/15 03:44:57;;;;;;;38.58;23.38;;;;;;;;;;4994461;28;20372;-58
2021/03/15 03:47:24;;;;;;;39.65;22.70;;;;;;;;;;4994573;28;20079;-58
2021/03/15 03:49:49;;;;;;;39.53;22.35;;;;;;;;;;4994526;28;20117;-63
2021/03/15 03:52:18;;;;;;;41.10;22.42;;;;;;;;;;4994446;28;20061;-63
2021/03/15 03:54:46;;;;;;;39.58;22.98;;;;;;;;;;4994490;28;20035;-62
2021/03/15 03:57:35;;;;;;;37.50;21.75;;;;;;;;;;4994577;28;20365;-62
2021/03/15 04:00:04;;;;;;;37.08;21.55;;;;;;;;;;4988904;28;20046;-63
2021/03/15 04:02:32;;;;;;;36.47;22.55;;;;;;;;;;4994612;28;20097;-63
2021/03/15 04:05:02;;;;;;;37.80;21.75;;;;;;;;;;4994254;28;20034;-63
2021/03/15 04:07:28;;;;;;;;;;;;;;;;;;4994918;28;20094;-63
2021/03/15 04:10:04;;;;;;;38.78;24.20;;;;;;;;;;4994336;28;19945;-63
2021/03/15 04:12:30;;;;;;;46.03;26.25;;;;;;;;;;4993226;28;20457;-63
2021/03/15 04:14:57;;;;;;;47.92;28.92;;;;;;;;;;4994349;28;20030;-63
2021/03/15 04:17:24;;;;;;;45.63;25.55;;;;;;;;;;4992617;28;20378;-63
2021/03/15 04:19:52;;;;;;;43.50;26.55;;;;;;;;;;4992892;28;20365;-63
2021/03/15 04:22:18;;;;;;;50.80;27.27;;;;;;;;;;4993951;28;20441;-63
2021/03/15 04:24:45;;;;;;;51.85;29.05;;;;;;;;;;4994019;28;20054;-63
2021/03/15 04:27:11;;;;;;;44.72;26.02;;;;;;;;;;4993794;28;20033;-63
2021/03/15 04:29:37;;;;;;;43.83;25.77;;;;;;;;;;4994077;28;20032;-63
2021/03/15 04:32:03;;;;;;;44.80;24.90;;;;;;;;;;4993542;28;20030;-63
2021/03/15 04:34:30;;;;;;;40.88;23.88;;;;;;;;;;4993755;28;20057;-58
2021/03/15 04:36:57;;;;;;;41.92;22.73;;;;;;;;;;4993677;28;20030;-58
2021/03/15 04:39:23;;;;;;;40.38;23.70;;;;;;;;;;4992449;28;20022;-58
2021/03/15 04:41:49;;;;;;;43.05;23.65;;;;;;;;;;4993735;28;20030;-63
2021/03/15 04:44:15;;;;;;;36.80;22.88;;;;;;;;;;4993691;28;20022;-63
2021/03/15 04:46:41;;;;;;;41.35;23.00;;;;;;;;;;4993612;28;20038;-64
2021/03/15 04:49:07;;;;;;;40.42;23.45;;;;;;;;;;4993419;28;20037;-63
2021/03/15 04:51:35;;;;;;;40.88;23.17;;;;;;;;;;4993621;28;20030;-63
2021/03/15 04:54:01;;;;;;;40.50;22.75;;;;;;;;;;4992222;28;20040;-63
2021/03/15 04:56:28;;;;;;;36.67;22.02;;;;;;;;;;4993165;28;20129;-64
2021/03/15 04:58:54;;;;;;;35.78;22.70;;;;;;;;;;4993381;28;20469;-64
2021/03/15 05:01:21;;;;;;;44.75;24.05;;;;;;;;;;4991746;28;20038;-64
2021/03/15 05:03:50;;;;;;;46.63;24.17;;;;;;;;;;4993088;28;20119;-66
2021/03/15 05:06:17;;;;;;;42.28;24.50;;;;;;;;;;4985990;28;20476;-66
2021/03/15 05:08:47;;;;;;;47.45;24.17;;;;;;;;;;4988209;28;20472;-66
2021/03/15 05:11:12;;;;;;;45.40;25.45;;;;;;;;;;4983309;28;20438;-66
2021/03/15 05:13:38;;;;;;;49.97;24.77;;;;;;;;;;5008187;28;20085;-66
2021/03/15 05:16:05;;;;;;;45.55;24.50;;;;;;;;;;4993202;28;20062;-66
2021/03/15 05:18:31;;;;;;;44.42;24.38;;;;;;;;;;4993512;28;20101;-66
2021/03/15 05:20:56;;;;;;;35.90;21.67;;;;;;;;;;4993161;28;20030;-66
2021/03/15 05:23:22;;;;;;;38.83;23.08;;;;;;;;;;4992986;28;20354;-66
2021/03/15 05:25:49;;;;;;;44.88;24.98;;;;;;;;;;4992866;28;20109;-66
2021/03/15 05:28:15;;;;;;;49.72;26.92;;;;;;;;;;4992740;28;20079;-66
2021/03/15 05:30:41;;;;;;;60.22;31.13;;;;;;;;;;4993123;28;20083;-66
2021/03/15 05:33:12;;;;;;;54.30;29.48;;;;;;;;;;4993046;28;20485;-66
2021/03/15 05:35:40;;;;;;;56.85;29.15;;;;;;;;;;4993025;28;20037;-59
2021/03/15 05:38:05;;;;;;;58.40;30.95;;;;;;;;;;4992729;28;20029;-59
2021/03/15 05:40:31;;;;;;;61.45;32.25;;;;;;;;;;4993062;28;20386;-59
2021/03/15 05:42:56;;;;;;;57.83;30.77;;;;;;;;;;4992592;28;20030;-59
2021/03/15 05:45:34;;;;;;;55.55;30.20;;;;;;;;;;4986134;28;20528;-59
2021/03/15 05:48:04;;;;;;;59.42;29.75;;;;;;;;;;4976779;28;20114;-59
2021/03/15 05:50:35;;;;;;;58.13;30.05;;;;;;;;;;4979845;28;20653;-59
2021/03/15 05:53:14;;;;;;;55.10;28.23;;;;;;;;;;4996945;28;20038;-59
2021/03/15 05:55:39;;;;;;;59.75;30.42;;;;;;;;;;4980343;28;20043;-59
2021/03/15 05:58:18;;;;;;;55.50;30.70;;;;;;;;;;4972724;28;20031;-59
2021/03/15 06:00:53;;;;;;;54.90;29.33;;;;;;;;;;4972370;28;20027;-59
2021/03/15 06:03:38;;;;;;;48.58;26.35;;;;;;;;;;4971923;28;20031;-59
2021/03/15 06:06:05;;;;;;;47.42;26.25;;;;;;;;;;4971995;28;20054;-59
2021/03/15 06:08:39;;;;;;;46.55;26.35;;;;;;;;;;4972330;28;20018;-59
2021/03/15 06:11:18;;;;;;;56.60;28.38;;;;;;;;;;4972685;28;20058;-59
2021/03/15 06:13:44;;;;;;;54.25;30.33;;;;;;;;;;4972550;28;20441;-59
2021/03/15 06:16:10;;;;;;;59.90;29.83;;;;;;;;;;4972583;28;20042;-59
2021/03/15 06:18:37;;;;;;;58.28;32.00;;;;;;;;;;4971632;28;20399;-59
2021/03/15 06:21:03;;;;;;;57.92;31.48;;;;;;;;;;4972903;28;20019;-59
2021/03/15 06:23:29;;;;;;;60.45;31.55;;;;;;;;;;4972625;28;20025;-59
2021/03/15 06:25:55;;;;;;;66.47;34.40;;;;;;;;;;4972470;28;20019;-59
2021/03/15 06:28:21;;;;;;;62.47;33.10;;;;;;;;;;4972330;28;20057;-59
2021/03/15 06:30:47;;;;;;;65.30;33.53;;;;;;;;;;4972930;28;20069;-59
2021/03/15 06:33:13;;;;;;;58.70;31.08;;;;;;;;;;4972851;28;20030;-59
2021/03/15 06:35:38;;;;;;;59.92;30.58;;;;;;;;;;4972898;28;20023;-59
2021/03/15 06:38:05;;;;;;;86.82;46.00;;;;;;;;;;4972634;28;20434;-59
2021/03/15 06:40:32;;;;;;;101.30;62.25;;;;;;;;;;4982439;28;20097;-59
2021/03/15 06:42:59;;;;;;;70.55;42.67;;;;;;;;;;4991976;28;20601;-59
2021/03/15 06:45:24;;;;;;;66.88;36.53;;;;;;;;;;4985397;28;20015;-65
2021/03/15 06:47:50;;;;;;;68.88;39.28;;;;;;;;;;4979297;28;20121;-66
2021/03/15 06:50:17;;;;;;;77.38;44.20;;;;;;;;;;4981383;28;20382;-65
2021/03/15 06:52:53;;;;;;;76.03;44.28;;;;;;;;;;4979326;28;20129;-59
2021/03/15 06:55:21;;;;;;;77.78;44.17;;;;;;;;;;4978136;28;20031;-59
2021/03/15 06:57:48;;;;;;;60.03;36.30;;;;;;;;;;4976278;28;20467;-59
2021/03/15 07:00:16;;;;;;;60.63;36.22;;;;;;;;;;4989691;28;20031;-59
2021/03/15 07:02:42;;;;;;;69.75;40.05;;;;;;;;;;4978320;28;20382;-59
2021/03/15 07:05:09;;;;;;;79.47;43.47;;;;;;;;;;4971668;28;20031;-59
2021/03/15 07:07:36;;;;;;;91.47;50.10;;;;;;;;;;4971118;28;20029;-59
2021/03/15 07:10:01;;;;;;;69.90;40.22;;;;;;;;;;4971268;28;20034;-59
2021/03/15 07:12:27;;;;;;;63.33;36.08;;;;;;;;;;4971184;28;20039;-59
2021/03/15 07:14:53;;;;;;;63.70;36.15;;;;;;;;;;4982226;28;20038;-59
2021/03/15 07:17:20;;;;;;;60.92;33.45;;;;;;;;;;4979240;28;20038;-59
2021/03/15 07:19:45;;;;;;;58.50;31.15;;;;;;;;;;4980345;28;20466;-59
2021/03/15 07:22:18;;;;;;;52.63;30.20;;;;;;;;;;4971854;28;20110;-59
2021/03/15 07:24:44;;;;;;;41.83;24.92;;;;;;;;;;4972032;28;20027;-59
2021/03/15 07:27:10;;;;;;;29.00;18.23;;;;;;;;;;4974050;28;20018;-59
2021/03/15 07:29:36;;;;;;;50.00;23.77;;;;;;;;;;4991402;28;20367;-59
2021/03/15 07:32:01;;;;;;;29.98;16.92;;;;;;;;;;4974462;28;20080;-59
2021/03/15 07:34:26;;;;;;;36.67;21.23;;;;;;;;;;4975716;28;20073;-59
2021/03/15 07:36:59;;;;;;;38.83;20.83;;;;;;;;;;4982232;28;20035;-59
2021/03/15 07:39:27;;;;;;;38.90;21.90;;;;;;;;;;4988155;28;20027;-59
2021/03/15 07:41:54;;;;;;;34.65;20.70;;;;;;;;;;4976613;28;20046;-60
2021/03/15 07:44:25;;;;;;;35.58;20.50;;;;;;;;;;4970273;28;20463;-59
2021/03/15 07:46:52;;;;;;;29.00;17.67;;;;;;;;;;4976277;28;20097;-59
2021/03/15 07:49:22;;;;;;;31.95;19.08;;;;;;;;;;4976264;28;20035;-59
2021/03/15 07:51:51;;;;;;;32.63;18.23;;;;;;;;;;4969567;28;20486;-59
2021/03/15 07:54:23;;;;;;;20.37;12.93;;;;;;;;;;4969455;28;20120;-59
2021/03/15 07:56:48;;;;;;;1035.85;363.50;;;;;;;;;;4970109;28;20035;-59
2021/03/15 07:59:14;;;;;;;323.17;124.93;;;;;;;;;;4970628;28;20157;-59
2021/03/15 08:01:40;;;;;;;13.85;8.68;;;;;;;;;;4970743;28;20027;-59
2021/03/15 08:04:05;;;;;;;67.45;22.35;;;;;;;;;;4971036;28;20027;-58
2021/03/15 08:06:31;;;;;;;29.35;13.40;;;;;;;;;;4970959;28;20034;-59
2021/03/15 08:08:56;;;;;;;440.63;139.88;;;;;;;;;;4970936;28;20152;-58
2021/03/15 08:11:23;;;;;;;71.03;30.10;;;;;;;;;;4969822;28;20454;-58
2021/03/15 08:13:49;;;;;;;11.65;7.68;;;;;;;;;;4970799;28;20042;-58
2021/03/15 08:16:18;;;;;;;9.95;6.63;;;;;;;;;;4970758;28;20035;-58
2021/03/15 08:18:46;;;;;;;9.23;6.68;;;;;;;;;;4970854;28;20047;-58
2021/03/15 08:21:17;;;;;;;7.18;5.68;;;;;;;;;;4970945;28;20019;-58
2021/03/15 08:23:43;;;;;;;7.35;6.43;;;;;;;;;;4974448;28;20080;-58
2021/03/15 08:26:09;;;;;;;44.25;20.42;;;;;;;;;;4974106;28;20490;-58
2021/03/15 08:28:37;;;;;;;13.60;8.93;;;;;;;;;;4974166;28;20042;-59
2021/03/15 08:31:21;;;;;;;24.17;12.43;;;;;;;;;;4974180;28;20111;-58
2021/03/15 08:33:47;;;;;;;7.15;6.45;;;;;;;;;;4974173;28;20023;-58
2021/03/15 08:36:13;;;;;;;7.10;6.15;;;;;;;;;;4973883;28;20351;-59
2021/03/15 08:38:38;;;;;;;6.97;5.60;;;;;;;;;;4973878;28;20054;-59
2021/03/15 08:41:07;;;;;;;9.00;6.38;;;;;;;;;;4976372;28;20053;-58
2021/03/15 08:43:35;;;;;;;8.93;6.85;;;;;;;;;;4977802;28;20110;-58
2021/03/15 08:46:01;;;;;;;8.27;5.70;;;;;;;;;;4979518;28;20128;-58
2021/03/15 08:48:50;;;;;;;9.77;6.78;;;;;;;;;;4978989;28;20564;-58
2021/03/15 08:51:33;;;;;;;5.78;5.28;;;;;;;;;;4980160;28;20038;-58
2021/03/15 08:54:00;;;;;;;7.90;6.38;;;;;;;;;;4983272;28;20023;-58
2021/03/15 08:56:28;;;;;;;7.40;6.25;;;;;;;;;;4981748;28;20060;-58
2021/03/15 08:58:54;;;;;;;8.52;5.95;;;;;;;;;;4983195;28;20018;-58
2021/03/15 09:01:24;;;;;;;7.85;6.78;;;;;;;;;;4981026;28;20113;-64
2021/03/15 09:03:58;;;;;;;8.10;6.50;;;;;;;;;;4984053;28;20026;-64
2021/03/15 09:06:30;;;;;;;13.00;8.48;;;;;;;;;;4982636;28;20027;-58
2021/03/15 09:09:19;;;;;;;8.93;7.05;;;;;;;;;;4984264;28;20406;-58
2021/03/15 09:11:45;;;;;;;6.78;6.05;;;;;;;;;;4981149;28;20062;-58
2021/03/15 09:14:21;;;;;;;6.60;5.80;;;;;;;;;;4982345;28;20042;-58
2021/03/15 09:16:52;;;;;;;12.13;9.20;;;;;;;;;;4973536;28;20056;-57
2021/03/15 09:19:37;;;;;;;9.02;7.13;;;;;;;;;;4972396;28;20125;-57
2021/03/15 09:22:03;;;;;;;7.55;6.38;;;;;;;;;;5004588;28;20402;-57
2021/03/15 09:24:46;;;;;;;8.35;7.13;;;;;;;;;;4973470;28;20109;-59
2021/03/15 09:27:12;;;;;;;8.10;7.13;;;;;;;;;;4973535;28;20113;-59
2021/03/15 09:29:38;;;;;;;6.93;5.97;;;;;;;;;;4973413;28;20031;-59
2021/03/15 09:32:05;;;;;;;8.48;7.43;;;;;;;;;;4972814;28;20152;-58
2021/03/15 09:34:31;;;;;;;8.50;6.55;;;;;;;;;;4972306;28;20027;-58
2021/03/15 09:37:00;;;;;;;8.13;6.97;;;;;;;;;;4973229;28;20121;-58
2021/03/15 09:39:31;;;;;;;16.10;12.70;;;;;;;;;;4973106;28;20470;-59
2021/03/15 09:41:56;;;;;;;;;;;;;;;;;;4973747;28;20073;-58
2021/03/15 09:44:25;;;;;;;24.88;13.57;;;;;;;;;;4975591;28;19906;-58
2021/03/15 09:46:51;;;;;;;11.40;7.82;;;;;;;;;;4980523;28;20088;-65
2021/03/15 09:49:32;;;;;;;8.88;7.85;;;;;;;;;;4998507;28;20037;-58
2021/03/15 09:52:18;;;;;;;12.70;11.43;;;;;;;;;;4981087;28;20042;-65
2021/03/15 09:54:52;;;;;;;20.92;11.13;;;;;;;;;;4987104;28;20038;-65
2021/03/15 09:57:19;;;;;;;13.57;8.50;;;;;;;;;;4973912;28;20043;-65
2021/03/15 10:00:12;;;;;;;11.25;8.13;;;;;;;;;;4974233;28;20019;-65
2021/03/15 10:02:45;;;;;;;10.82;7.45;;;;;;;;;;4976741;28;20145;-65
2021/03/15 10:05:29;;;;;;;11.25;8.05;;;;;;;;;;4976351;28;20088;-65
2021/03/15 10:08:18;;;;;;;26.75;12.18;;;;;;;;;;5000467;28;20062;-61
2021/03/15 10:11:02;;;;;;;16.20;8.10;;;;;;;;;;4973105;28;20034;-58
2021/03/15 10:14:01;;;;;;;13.48;7.90;;;;;;;;;;5005292;28;20097;-58
2021/03/15 10:16:57;;;;;;;7.28;6.60;;;;;;;;;;4972986;28;20559;-59
2021/03/15 10:19:53;;;;;;;15.30;7.82;;;;;;;;;;4965115;28;20478;-59
2021/03/15 10:22:20;;;;;;;22.45;11.35;;;;;;;;;;4987582;28;20031;-58
2021/03/15 10:24:51;;;;;;;7.47;6.60;;;;;;;;;;4970925;28;20466;-60
2021/03/15 10:27:24;;;;;;;11.88;7.97;;;;;;;;;;4987590;28;20386;-58
2021/03/15 10:29:51;;;;;;;21.58;9.25;;;;;;;;;;4971140;28;20042;-58
2021/03/15 10:32:19;;;;;;;8.98;6.18;;;;;;;;;;4972390;28;20390;-58
2021/03/15 10:34:49;;;;;;;135.93;51.33;;;;;;;;;;4970328;28;20038;-58
2021/03/15 10:37:17;;;;;;;26.70;15.55;;;;;;;;;;4987379;28;20038;-58
2021/03/15 10:39:54;;;;;;;6.10;5.25;;;;;;;;;;4971202;28;20422;-58
2021/03/15 10:42:23;;;;;;;5.28;4.88;;;;;;;;;;4971032;28;20046;-58
2021/03/15 10:44:50;;;;;;;8.93;6.85;;;;;;;;;;4969862;28;20015;-59
2021/03/15 10:47:29;;;;;;;10.05;7.72;;;;;;;;;;5002036;28;20034;-58
2021/03/15 10:49:55;;;;;;;5.65;5.15;;;;;;;;;;4970587;28;20037;-58
2021/03/15 10:52:44;;;;;;;4.10;3.70;;;;;;;;;;4977132;28;20034;-58
2021/03/15 10:55:17;;;;;;;4.50;3.95;;;;;;;;;;4986728;28;20042;-58
2021/03/15 10:58:02;;;;;;;6.60;4.95;;;;;;;;;;4970373;28;20087;-58
2021/03/15 11:00:30;;;;;;;7.70;5.30;;;;;;;;;;4970915;28;20462;-59
2021/03/15 11:02:58;;;;;;;6.78;5.60;;;;;;;;;;4971146;28;20030;-58
2021/03/15 11:05:23;;;;;;;6.78;5.13;;;;;;;;;;4971852;28;20026;-58
2021/03/15 11:07:51;;;;;;;6.38;5.35;;;;;;;;;;4970631;28;20014;-58
2021/03/15 11:10:20;;;;;;;;;;;;;;;;;;4971055;28;20027;-58
2021/03/15 11:12:52;;;;;;;6.47;5.05;;;;;;;;;;4970309;28;19914;-58
2021/03/15 11:15:32;;;;;;;4.50;4.10;;;;;;;;;;4987191;28;20066;-58
2021/03/15 11:18:03;;;;;;;7.18;4.13;;;;;;;;;;4970992;28;20043;-58
2021/03/15 11:20:49;;;;;;;6.03;4.07;;;;;;;;;;4970363;28;20050;-58
2021/03/15 11:23:29;;;;;;;6.15;4.95;;;;;;;;;;4970938;28;20031;-58
2021/03/15 11:26:00;;;;;;;20.77;9.30;;;;;;;;;;4970922;28;20031;-58
2021/03/15 11:28:30;;;;;;;68.15;24.58;;;;;;;;;;4970661;28;20092;-58
2021/03/15 11:30:59;;;;;;;4.93;4.20;;;;;;;;;;4970369;28;20031;-58
2021/03/15 11:33:30;;;;;;;6.20;4.55;;;;;;;;;;4970645;28;20438;-58
2021/03/15 11:36:20;;;;;;;6.07;5.07;;;;;;;;;;4972917;28;20384;-58
2021/03/15 11:38:57;;;;;;;5.38;4.63;;;;;;;;;;4986821;28;20035;-58
2021/03/15 11:41:37;;;;;;;6.35;4.72;;;;;;;;;;4986793;28;20114;-58
2021/03/15 11:44:02;;;;;;;5.63;4.75;;;;;;;;;;4970353;28;20429;-58
2021/03/15 11:46:28;;;;;;;6.20;4.88;;;;;;;;;;4971400;28;20031;-58
2021/03/15 11:48:54;;;;;;;5.93;5.30;;;;;;;;;;4970131;28;20114;-58
2021/03/15 11:51:38;;;;;;;6.22;5.18;;;;;;;;;;4970195;28;20059;-58
2021/03/15 11:54:26;;;;;;;3.65;3.28;;;;;;;;;;4986247;28;20118;-58
2021/03/15 11:56:51;;;;;;;4.05;3.63;;;;;;;;;;4972191;28;20114;-58
2021/03/15 11:59:19;;;;;;;5.13;4.50;;;;;;;;;;4997961;28;20018;-58
2021/03/15 12:01:52;;;;;;;5.78;4.50;;;;;;;;;;4977123;28;20018;-58
2021/03/15 12:04:18;;;;;;;4.80;4.07;;;;;;;;;;4979788;28;20478;-58
2021/03/15 12:06:49;;;;;;;4.88;4.47;;;;;;;;;;4990369;28;20026;-58
2021/03/15 12:09:22;;;;;;;25.65;19.15;;;;;;;;;;4982323;28;20066;-58
2021/03/15 12:11:51;;;;;;;13.27;9.27;;;;;;;;;;4973614;28;20031;-58
2021/03/15 12:14:18;;;;;;;5.82;5.00;;;;;;;;;;4973750;28;20035;-58
2021/03/15 12:16:48;;;;;;;6.50;5.00;;;;;;;;;;4974485;28;20050;-58
2021/03/15 12:19:14;;;;;;;5.63;4.40;;;;;;;;;;4975106;28;20027;-58
2021/03/15 12:21:44;;;;;;;;;;;;;;;;;;4990051;28;20023;-58
2021/03/15 12:24:17;;;;;;;19.63;17.58;;;;;;;;;;4974753;28;19917;-58
2021/03/15 12:26:46;;;;;;;5.30;4.80;;;;;;;;;;4989526;28;20034;-58
2021/03/15 12:29:18;;;;;;;10.63;9.57;;;;;;;;;;4973218;28;20027;-58
2021/03/15 12:31:47;;;;;;;;;;;;;;;;;;4978704;28;20046;-58
2021/03/15 12:34:14;;;;;;;6.90;5.28;;;;;;;;;;4996950;28;19913;-58
2021/03/15 12:36:40;;;;;;;5.22;4.05;;;;;;;;;;4996973;28;20355;-64
2021/03/15 12:39:10;;;;;;;4.20;3.80;;;;;;;;;;4989349;28;20031;-64
2021/03/15 12:41:42;;;;;;;5.03;4.32;;;;;;;;;;4980545;28;20052;-64
2021/03/15 12:44:08;;;;;;;6.55;4.55;;;;;;;;;;4989024;28;20398;-64
2021/03/15 12:46:36;;;;;;;5.57;4.70;;;;;;;;;;4972379;28;20537;-64
2021/03/15 12:49:10;;;;;;;6.18;4.57;;;;;;;;;;4971242;28;20027;-64
2021/03/15 12:51:36;;;;;;;5.10;4.50;;;;;;;;;;4973572;28;20041;-64
2021/03/15 12:54:04;;;;;;;7.72;5.05;;;;;;;;;;4973684;28;20030;-64
2021/03/15 12:56:37;;;;;;;4.70;4.00;;;;;;;;;;4972482;28;20039;-64
2021/03/15 12:59:02;;;;;;;5.75;4.05;;;;;;;;;;4972405;28;20031;-65
2021/03/15 13:01:36;;;;;;;6.38;4.80;;;;;;;;;;4972658;28;20015;-64
2021/03/15 13:04:02;;;;;;;5.53;4.93;;;;;;;;;;4989049;28;20054;-64
2021/03/15 13:06:33;;;;;;;17.30;9.20;;;;;;;;;;4988830;28;20031;-64
2021/03/15 13:09:04;;;;;;;14.57;8.38;;;;;;;;;;4971521;28;20068;-64
2021/03/15 13:11:42;;;;;;;5.68;5.13;;;;;;;;;;4988531;28;20045;-64
2021/03/15 13:14:26;;;;;;;4.57;3.67;;;;;;;;;;4993591;28;20103;-65
2021/03/15 13:17:01;;;;;;;15.55;4.07;;;;;;;;;;4992039;28;20155;-64
2021/03/15 13:19:27;;;;;;;4.18;3.60;;;;;;;;;;4992930;28;20037;-64
2021/03/15 13:21:53;;;;;;;4.45;3.90;;;;;;;;;;4992056;28;20369;-64
2021/03/15 13:24:19;;;;;;;6.47;4.15;;;;;;;;;;4992007;28;20030;-64
2021/03/15 13:26:49;;;;;;;3.30;3.00;;;;;;;;;;5008137;28;20509;-64
2021/03/15 13:29:19;;;;;;;4.10;3.75;;;;;;;;;;4992004;28;20135;-64
2021/03/15 13:31:45;;;;;;;4.63;3.75;;;;;;;;;;4992343;28;20490;-64
2021/03/15 13:34:13;;;;;;;4.10;3.03;;;;;;;;;;5007946;28;20381;-64
2021/03/15 13:36:38;;;;;;;4.10;3.33;;;;;;;;;;4991500;28;20030;-64
2021/03/15 13:39:10;;;;;;;3.88;3.53;;;;;;;;;;5008341;28;20017;-64
2021/03/15 13:41:38;;;;;;;4.13;3.70;;;;;;;;;;5007900;28;20125;-64
2021/03/15 13:44:12;;;;;;;6.05;4.38;;;;;;;;;;4991339;28;20026;-64
2021/03/15 13:46:45;;;;;;;4.85;4.07;;;;;;;;;;4992774;28;20057;-64
2021/03/15 13:49:12;;;;;;;5.22;4.63;;;;;;;;;;4991324;28;20130;-64
2021/03/15 13:51:50;;;;;;;5.45;4.22;;;;;;;;;;4992368;28;20030;-64
2021/03/15 13:54:25;;;;;;;4.75;4.13;;;;;;;;;;4990538;28;20030;-64
2021/03/15 13:56:51;;;;;;;7.20;6.05;;;;;;;;;;4990136;28;20530;-64
2021/03/15 13:59:25;;;;;;;4.05;3.75;;;;;;;;;;4990197;28;20030;-64
2021/03/15 14:01:51;;;;;;;4.15;3.70;;;;;;;;;;5006583;28;20131;-64
2021/03/15 14:04:27;;;;;;;4.70;3.50;;;;;;;;;;4990201;28;20019;-64
2021/03/15 14:07:05;;;;;;;7.85;5.30;;;;;;;;;;4990680;28;20101;-64
2021/03/15 14:09:34;;;;;;;7.75;5.63;;;;;;;;;;4990658;28;20034;-64
2021/03/15 14:12:09;;;;;;;10.27;5.53;;;;;;;;;;5006664;28;20125;-64
2021/03/15 14:14:41;;;;;;;12.05;9.77;;;;;;;;;;4990977;28;20113;-64
2021/03/15 14:17:07;;;;;;;6.53;4.57;;;;;;;;;;5007010;28;20438;-64
2021/03/15 14:22:41;;;;;;;16.73;10.57;;;;;;;;;;5001125;28;20066;-57
2021/03/15 14:25:11;;;;;;;10.35;7.03;;;;;;;;;;5026462;28;20026;-58
2021/03/15 14:28:06;;;;;;;8.23;4.97;;;;;;;;;;5010068;28;20022;-58
2021/03/15 14:30:42;;;;;;;13.20;6.40;;;;;;;;;;5011171;28;20034;-58
2021/03/15 14:33:09;;;;;;;6.35;4.43;;;;;;;;;;5010389;28;20037;-58
2021/03/15 14:35:44;;;;;;;13.00;6.78;;;;;;;;;;5010298;28;20026;-57
2021/03/15 14:38:29;;;;;;;18.95;16.40;;;;;;;;;;5009810;28;20038;-58
2021/03/15 14:40:56;;;;;;;7.72;4.80;;;;;;;;;;5008036;28;20108;-58
2021/03/15 14:43:26;;;;;;;6.13;4.75;;;;;;;;;;5009787;28;20034;-64
2021/03/15 14:46:09;;;;;;;5.80;3.97;;;;;;;;;;5010393;28;20058;-64